Captain IVan Vikulov — UGRZ — position and weather

sailwx.info

Track history (hours):
 
Tides and Currents Weather Stations Pressure Air Temp Water Temp Dewpoint Dewpoint Depression Visibility Wind Speed Wind Dir Waves Ship Positions

Captain IVan Vikulov

Last reported at 2018-Jan-02 23:50 UTC. Time now 2018-Jan-20 03:42 UTC.
Position N 45°30' E 036°44'.
Warning: this ship's position is 17 days out of date.

Length 140 m; draft 2.9 m.

Type: Cargo ship. MMSI: 273457720.

Date/timePositionNaut miles runAvg speedWind from/ knotsBaromVisibWave heightAir tempDewpointWater temp
2018-Jan-02 23:50N 45°30' E 036°44'2 7.0
2018-Jan-02 23:30N 45°28' E 036°43'4 7.4
2018-Jan-02 23:00N 45°25' E 036°41'4 7.1
2018-Jan-02 22:30N 45°21' E 036°39'3 6.8
2018-Jan-02 22:00N 45°20' E 036°35'4 7.2
2018-Jan-02 21:30N 45°18' E 036°30'3 6.0
2018-Jan-02 21:00N 45°16' E 036°28'3 6.5
2018-Jan-02 20:30N 45°13' E 036°29'4 7.8
2018-Jan-02 20:00N 45°09' E 036°32'1 1.6
2018-Jan-02 19:30N 45°09' E 036°33'0 0.0
2018-Jan-02 19:00N 45°09' E 036°33'0 0.3
2018-Jan-02 18:30N 45°09' E 036°33'1 1.1
2018-Jan-02 17:27N 45°08' E 036°34'0 0.0
2018-Jan-02 17:00N 45°08' E 036°34'0 0.0
2018-Jan-02 16:30N 45°08' E 036°34'0 0.1
2018-Jan-02 15:42N 45°08' E 036°34'0 0.0
2018-Jan-02 15:30N 45°08' E 036°34'0 0.0
2018-Jan-02 15:00N 45°08' E 036°34'0 0.0
2018-Jan-02 14:24N 45°08' E 036°34'0 0.0
2018-Jan-02 14:00N 45°08' E 036°34'0 0.0
2018-Jan-02 13:30N 45°08' E 036°34'0 0.0
2018-Jan-02 13:00N 45°08' E 036°34'0 0.0
2018-Jan-02 12:30N 45°08' E 036°34'0 0.0
2018-Jan-02 12:00N 45°08' E 036°34'0 0.1
2018-Jan-02 11:30N 45°08' E 036°34'0 0.0
2018-Jan-02 11:00N 45°08' E 036°34'0 0.0
2018-Jan-02 10:30N 45°08' E 036°34'0 0.1
2018-Jan-02 10:00N 45°08' E 036°34'0 0.0
2018-Jan-02 09:21N 45°08' E 036°34'0 0.0
2018-Jan-02 08:30N 45°08' E 036°34'0 0.0
2018-Jan-01 22:10N 45°08' E 036°34'0 0.1
2018-Jan-01 22:00N 45°08' E 036°34'0 0.4
2018-Jan-01 21:30N 45°08' E 036°35'1 0.1
2018-Jan-01 14:13N 45°08' E 036°34'0 1.9
2018-Jan-01 13:59N 45°09' E 036°34'3 6.8
2018-Jan-01 13:30N 45°11' E 036°30'3 6.8
2018-Jan-01 13:00N 45°14' E 036°28'6 6.3
2018-Jan-01 12:00N 45°19' E 036°33'4 7.4
2018-Jan-01 11:30N 45°21' E 036°38'3 6.2
2018-Jan-01 11:00N 45°23' E 036°40'2 5.0
2018-Jan-01 10:30N 45°26' E 036°41'3 6.6
2018-Jan-01 10:01N 45°28' E 036°38'0 0.3
2018-Jan-01 09:30N 45°28' E 036°38'0 0.0
2018-Jan-01 08:27N 45°28' E 036°38'1 2.7
2018-Jan-01 08:00N 45°29' E 036°40'4 7.3
2018-Jan-01 07:30N 45°32' E 036°43'  
Track history (hours):
 
Tides and Currents Weather Stations Pressure Air Temp Water Temp Dewpoint Dewpoint Depression Visibility Wind Speed Wind Dir Waves Ship Positions

Captain IVan Vikulov

Last reported at 2018-Jan-02 23:50 UTC. Time now 2018-Jan-20 03:42 UTC.
Position N 45°30' E 036°44'.
Warning: this ship's position is 17 days out of date.

Length 140 m; draft 2.9 m.

Type: Cargo ship. MMSI: 273457720.

Date/timePositionNaut miles runAvg speedWind from/ knotsBaromVisibWave heightAir tempDewpointWater temp
2018-Jan-02 23:50N 45°30' E 036°44'2 7.0
2018-Jan-02 23:30N 45°28' E 036°43'4 7.4
2018-Jan-02 23:00N 45°25' E 036°41'4 7.1
2018-Jan-02 22:30N 45°21' E 036°39'3 6.8
2018-Jan-02 22:00N 45°20' E 036°35'4 7.2
2018-Jan-02 21:30N 45°18' E 036°30'3 6.0
2018-Jan-02 21:00N 45°16' E 036°28'3 6.5
2018-Jan-02 20:30N 45°13' E 036°29'4 7.8
2018-Jan-02 20:00N 45°09' E 036°32'1 1.6
2018-Jan-02 19:30N 45°09' E 036°33'0 0.0
2018-Jan-02 19:00N 45°09' E 036°33'0 0.3
2018-Jan-02 18:30N 45°09' E 036°33'1 1.1
2018-Jan-02 17:27N 45°08' E 036°34'0 0.0
2018-Jan-02 17:00N 45°08' E 036°34'0 0.0
2018-Jan-02 16:30N 45°08' E 036°34'0 0.1
2018-Jan-02 15:42N 45°08' E 036°34'0 0.0
2018-Jan-02 15:30N 45°08' E 036°34'0 0.0
2018-Jan-02 15:00N 45°08' E 036°34'0 0.0
2018-Jan-02 14:24N 45°08' E 036°34'0 0.0
2018-Jan-02 14:00N 45°08' E 036°34'0 0.0
2018-Jan-02 13:30N 45°08' E 036°34'0 0.0
2018-Jan-02 13:00N 45°08' E 036°34'0 0.0
2018-Jan-02 12:30N 45°08' E 036°34'0 0.0
2018-Jan-02 12:00N 45°08' E 036°34'0 0.1
2018-Jan-02 11:30N 45°08' E 036°34'0 0.0
2018-Jan-02 11:00N 45°08' E 036°34'0 0.0
2018-Jan-02 10:30N 45°08' E 036°34'0 0.1
2018-Jan-02 10:00N 45°08' E 036°34'0 0.0
2018-Jan-02 09:21N 45°08' E 036°34'0 0.0
2018-Jan-02 08:30N 45°08' E 036°34'0 0.0
2018-Jan-01 22:10N 45°08' E 036°34'0 0.1
2018-Jan-01 22:00N 45°08' E 036°34'0 0.4
2018-Jan-01 21:30N 45°08' E 036°35'1 0.1
2018-Jan-01 14:13N 45°08' E 036°34'0 1.9
2018-Jan-01 13:59N 45°09' E 036°34'3 6.8
2018-Jan-01 13:30N 45°11' E 036°30'3 6.8
2018-Jan-01 13:00N 45°14' E 036°28'6 6.3
2018-Jan-01 12:00N 45°19' E 036°33'4 7.4
2018-Jan-01 11:30N 45°21' E 036°38'3 6.2
2018-Jan-01 11:00N 45°23' E 036°40'2 5.0
2018-Jan-01 10:30N 45°26' E 036°41'3 6.6
2018-Jan-01 10:01N 45°28' E 036°38'0 0.3
2018-Jan-01 09:30N 45°28' E 036°38'0 0.0
2018-Jan-01 08:27N 45°28' E 036°38'1 2.7
2018-Jan-01 08:00N 45°29' E 036°40'4 7.3
2018-Jan-01 07:30N 45°32' E 036°43'  

Dump ship's entire track history